Time;durP1;ratioP1;P1;durP2;ratioP2;P2;SDS_P1;SDS_P2;PMS_P1;PMS_P2;Temp;Humidity;BMP_temperature;BMP_pressure;BME280_temperature;BME280_humidity;BME280_pressure;Samples;Min_cycle;Max_cycle;Signal;HPM_P1;HPM_P2
2022/04/03 00:01:52;;;;;;;4.40;2.50;;;-1.30;1.00;;;-1.75;56.69;97941.63;5040983;27;119776;-63
2022/04/03 00:04:23;;;;;;;6.45;2.92;;;-1.30;1.00;;;-1.82;56.66;97948.03;5040539;27;129448;-65
2022/04/03 00:06:52;;;;;;;5.72;2.67;;;-1.30;1.00;;;-1.74;56.26;97945.91;5008985;27;129759;-63
2022/04/03 00:09:21;;;;;;;6.97;3.08;;;-1.30;1.00;;;-1.82;56.87;97942.72;4992246;27;119344;-64
2022/04/03 00:11:49;;;;;;;6.60;2.47;;;-1.40;1.00;;;-1.86;56.57;97944.31;5040917;27;119759;-65
2022/04/03 00:14:18;;;;;;;7.10;3.10;;;-1.40;1.00;;;-1.93;56.40;97954.44;5023457;27;129461;-65
2022/04/03 00:16:48;;;;;;;5.22;2.80;;;-1.40;1.00;;;-1.92;56.47;97942.72;5021776;27;129161;-65
2022/04/03 00:19:17;;;;;;;5.35;2.90;;;-1.40;1.00;;;-1.90;56.83;97940.59;5041824;27;119590;-66
2022/04/03 00:21:47;;;;;;;4.82;2.50;;;-1.40;1.00;;;-1.98;57.16;97933.16;5025403;27;119068;-65
2022/04/03 00:24:17;;;;;;;5.93;3.00;;;-1.50;1.00;;;-2.00;57.31;97937.94;5040076;27;130411;-65
2022/04/03 00:26:45;;;;;;;5.80;2.75;;;-1.50;1.00;;;-2.03;57.47;97933.94;5039994;27;129881;-66
2022/04/03 00:29:14;;;;;;;6.10;3.22;;;-1.60;1.00;;;-2.02;57.13;97943.53;5025112;27;119399;-64
2022/04/03 00:31:42;;;;;;;4.78;2.80;;;-1.50;1.00;;;-2.09;56.84;97936.88;5040712;27;119550;-65
2022/04/03 00:34:13;;;;;;;5.30;2.80;;;-1.50;1.00;;;-2.13;57.11;97935.84;5021378;27;129884;-65
2022/04/03 00:36:42;;;;;;;5.35;2.70;;;-1.50;1.00;;;-2.15;57.13;97933.44;5039999;27;129753;-66
2022/04/03 00:39:10;;;;;;;5.70;3.08;;;-1.60;1.00;;;-2.14;57.33;97950.19;5038828;27;123268;-67
2022/04/03 00:41:40;;;;;;;5.03;2.55;;;-1.60;1.00;;;-2.13;57.42;97938.50;5040017;27;122350;-65
2022/04/03 00:44:09;;;;;;;7.30;3.38;;;-1.70;1.00;;;-2.26;58.12;97935.31;5008160;27;128809;-65
2022/04/03 00:46:38;;;;;;;5.53;3.10;;;-1.70;1.00;;;-2.25;57.22;97934.22;5039861;27;130119;-64
2022/04/03 00:49:07;;;;;;;5.80;2.53;;;-1.70;1.00;;;-2.27;57.57;97941.69;5039738;27;120711;-65
2022/04/03 00:51:38;;;;;;;8.05;3.22;;;-1.70;1.00;;;-2.26;58.18;97943.28;5040162;27;119383;-64
2022/04/03 00:54:07;;;;;;;5.95;2.92;;;-1.80;1.00;;;-2.42;58.29;97941.66;5039646;27;130051;-66
2022/04/03 00:56:36;;;;;;;6.68;3.00;;;-1.90;1.00;;;-2.39;58.80;97931.31;5040142;27;129553;-64
2022/04/03 00:59:06;;;;;;;5.30;2.72;;;-1.90;1.00;;;-2.39;58.95;97938.47;5043164;27;119318;-65
2022/04/03 01:01:35;;;;;;;4.70;2.65;;;-1.90;1.00;;;-2.46;59.50;97948.56;5039688;27;119581;-67
2022/04/03 01:04:03;;;;;;;6.82;2.90;;;-2.00;1.00;;;-2.55;60.06;97941.13;5023520;27;128533;-66
2022/04/03 01:06:33;;;;;;;6.75;3.47;;;-2.00;1.00;;;-2.56;60.61;97936.06;5039150;27;129476;-65
2022/04/03 01:09:04;;;;;;;6.50;3.40;;;-2.10;1.00;;;-2.61;60.97;97936.88;5039355;27;119991;-64
2022/04/03 01:11:33;;;;;;;6.97;3.58;;;-2.10;1.00;;;-2.59;61.18;97940.03;5022056;27;119503;-63
2022/04/03 01:14:01;;;;;;;7.38;3.70;;;-2.20;1.00;;;-2.70;61.49;97938.44;5039220;27;130707;-63
2022/04/03 01:16:29;;;;;;;5.75;3.20;;;-2.20;1.00;;;-2.77;62.22;97927.28;5039235;27;130355;-63
2022/04/03 01:18:59;;;;;;;5.07;3.03;;;-2.20;1.00;;;-2.86;62.79;97934.97;5040293;27;119924;-64
2022/04/03 01:21:29;;;;;;;6.60;3.35;;;-2.30;1.00;;;-2.81;62.54;97942.13;5040014;27;119200;-65
2022/04/03 01:23:57;;;;;;;5.80;3.10;;;-2.30;1.00;;;-2.86;62.83;97928.84;5019628;27;129945;-63
2022/04/03 01:26:28;;;;;;;8.10;3.03;;;-2.30;1.00;;;-2.89;63.27;97933.63;5038979;27;130421;-64
2022/04/03 01:28:56;;;;;;;7.10;3.47;;;-2.40;1.00;;;-2.96;63.58;97941.03;5037962;27;121981;-66
2022/04/03 01:31:25;;;;;;;5.60;2.92;;;-2.40;1.00;;;-3.01;63.73;97919.00;5039471;27;121891;-65
2022/04/03 01:33:54;;;;;;;6.20;3.17;;;-2.50;1.00;;;-3.06;64.18;97925.06;5039060;27;129848;-64
2022/04/03 01:36:24;;;;;;;5.82;3.20;;;-2.40;1.00;;;-3.04;64.57;97928.25;5039099;27;129550;-65
2022/04/03 01:38:53;;;;;;;5.90;3.05;;;-2.50;1.00;;;-3.06;64.24;97935.69;5024489;27;118977;-65
2022/04/03 01:41:22;;;;;;;6.70;3.35;;;-2.50;1.00;;;-3.01;64.64;97933.03;5041087;27;120819;-65
2022/04/03 01:43:52;;;;;;;6.10;3.10;;;-2.60;1.00;;;-3.06;64.26;97935.69;5038640;27;129841;-65
2022/04/03 01:46:21;;;;;;;5.20;3.10;;;-2.60;1.00;;;-3.16;65.17;97933.81;5024276;27;128371;-65
2022/04/03 01:48:49;;;;;;;8.45;3.10;;;-2.60;1.00;;;-3.18;65.03;97932.47;5023886;27;118686;-66
2022/04/03 01:51:18;;;;;;;7.18;3.60;;;-2.60;1.00;;;-3.12;65.08;97936.72;5038342;27;119384;-65
2022/04/03 01:53:46;;;;;;;6.45;3.38;;;-2.60;1.00;;;-3.19;65.32;97929.03;5037612;27;130230;-66
2022/04/03 01:56:15;;;;;;;7.47;3.58;;;-2.60;1.00;;;-3.22;65.49;97936.72;5037405;27;129533;-66
2022/04/03 01:58:43;;;;;;;5.30;3.13;;;-2.60;1.00;;;-3.13;65.44;97935.13;5038885;27;120688;-64
2022/04/03 02:01:13;;;;;;;6.90;3.17;;;-2.60;1.00;;;-3.22;65.20;97953.44;5039169;27;119545;-65
2022/04/03 02:03:42;;;;;;;5.00;2.97;;;-2.70;1.00;;;-3.27;65.66;97946.25;5040444;27;129364;-65
2022/04/03 02:06:13;;;;;;;4.95;2.72;;;-2.60;1.00;;;-3.16;65.60;97951.59;5038691;27;129962;-64
2022/04/03 02:08:41;;;;;;;7.60;3.40;;;-2.60;1.00;;;-3.27;65.78;97946.25;5007114;27;119201;-64
2022/04/03 02:11:10;;;;;;;7.82;3.38;;;-2.60;1.00;;;-3.34;66.41;97945.66;5039319;27;119798;-64
2022/04/03 02:13:39;;;;;;;6.82;3.10;;;-2.70;1.00;;;-3.37;66.43;97946.19;5038594;27;130027;-65
2022/04/03 02:16:09;;;;;;;5.65;3.15;;;-2.70;1.00;;;-3.39;66.20;97947.53;5023565;27;128396;-65
2022/04/03 02:18:39;;;;;;;6.60;3.28;;;-2.70;1.00;;;-3.43;66.43;97957.81;5022268;27;122033;-66
2022/04/03 02:21:08;;;;;;;7.22;3.25;;;-2.60;1.00;;;-3.37;66.62;97953.34;5020402;27;122091;-65
2022/04/03 02:23:36;;;;;;;7.00;3.30;;;-2.70;1.00;;;-3.38;66.54;97949.91;5023392;27;129208;-66
2022/04/03 02:26:05;;;;;;;6.40;3.10;;;-2.80;1.00;;;-3.41;66.89;97955.72;5038322;27;129572;-66
2022/04/03 02:28:33;;;;;;;8.13;3.25;;;-2.70;1.00;;;-3.40;66.70;97949.34;5023785;27;119670;-65
2022/04/03 02:31:02;;;;;;;8.80;3.10;;;-2.70;1.00;;;-3.41;66.73;97961.03;5038550;27;119272;-66
2022/04/03 02:33:30;;;;;;;5.50;2.88;;;-2.70;1.00;;;-3.42;66.86;97948.81;5038298;27;130044;-65
2022/04/03 02:36:00;;;;;;;5.50;3.20;;;-2.70;1.00;;;-3.46;67.18;97958.34;5038592;27;130698;-66
2022/04/03 02:38:30;;;;;;;7.10;3.35;;;-2.80;1.00;;;-3.41;66.94;97961.03;5040135;27;120050;-66
2022/04/03 02:40:59;;;;;;;7.18;3.25;;;-2.80;1.00;;;-3.42;66.85;97958.63;5023907;27;119090;-65
2022/04/03 02:43:27;;;;;;;6.50;3.17;;;-2.80;1.00;;;-3.46;67.14;97953.03;5040438;27;129737;-65
2022/04/03 02:45:56;;;;;;;7.72;3.97;;;-2.80;1.00;;;-3.49;66.95;97964.16;5041561;27;129440;-66
2022/04/03 02:48:24;;;;;;;7.28;3.42;;;-2.80;1.00;;;-3.51;67.60;97967.06;5042251;27;119785;-64
2022/04/03 02:50:53;;;;;;;7.53;3.35;;;-2.80;1.00;;;-3.57;66.93;97964.66;5026638;27;119274;-64
2022/04/03 02:53:23;;;;;;;8.05;3.08;;;-2.90;1.00;;;-3.42;67.18;97964.75;5041577;27;130161;-67
2022/04/03 02:55:52;;;;;;;8.10;3.53;;;-2.80;1.00;;;-3.41;67.25;97969.00;5041323;27;130099;-65
2022/04/03 02:58:20;;;;;;;6.57;3.35;;;-2.90;1.00;;;-3.50;67.58;97965.22;5041993;27;120323;-65
2022/04/03 03:00:49;;;;;;;6.88;3.17;;;-2.90;1.00;;;-3.53;67.26;97971.84;5042132;27;119451;-66
2022/04/03 03:03:17;;;;;;;7.43;3.53;;;-2.90;1.00;;;-3.49;67.08;97969.47;5041511;27;129847;-64
2022/04/03 03:05:46;;;;;;;6.38;3.33;;;-2.90;1.00;;;-3.49;67.47;97980.06;5043230;27;130008;-64
2022/04/03 03:08:16;;;;;;;5.90;3.45;;;-2.90;1.00;;;-3.56;67.46;97968.91;5008729;27;122005;-65
2022/04/03 03:10:47;;;;;;;6.63;3.63;;;-2.90;1.00;;;-3.58;67.74;97968.34;5041750;27;121928;-63
2022/04/03 03:13:16;;;;;;;6.80;3.20;;;-3.00;1.00;;;-3.59;68.08;97964.91;5041327;27;129749;-64
2022/04/03 03:15:45;;;;;;;7.70;4.15;;;-3.00;1.00;;;-3.57;68.21;97967.31;5040072;27;129427;-62
2022/04/03 03:18:14;;;;;;;6.72;3.67;;;-3.00;1.00;;;-3.54;67.91;97977.41;5041598;27;119813;-63
2022/04/03 03:20:42;;;;;;;7.68;3.78;;;-3.00;1.00;;;-3.58;67.92;97981.59;5026632;27;118192;-65
2022/04/03 03:23:10;;;;;;;6.40;3.55;;;-3.10;1.00;;;-3.64;68.39;97978.94;5041356;27;130037;-64
2022/04/03 03:25:39;;;;;;;6.72;3.60;;;-3.10;1.00;;;-3.62;68.05;97976.03;5041473;27;128998;-65
2022/04/03 03:28:08;;;;;;;8.15;4.03;;;-3.10;1.00;;;-3.63;68.40;97991.16;5026450;27;119069;-65
2022/04/03 03:30:37;;;;;;;9.18;4.30;;;-3.20;1.00;;;-3.58;68.29;97993.03;5041415;27;119589;-64
2022/04/03 03:33:05;;;;;;;10.80;4.43;;;-3.20;1.00;;;-3.46;68.07;97990.16;5039774;27;130610;-65
2022/04/03 03:35:34;;;;;;;7.18;3.75;;;-3.20;1.00;;;-3.56;67.96;97995.44;5041249;27;130412;-65
2022/04/03 03:38:02;;;;;;;6.90;3.85;;;-3.20;1.00;;;-3.59;68.62;97995.94;5026313;27;118434;-64
2022/04/03 03:40:31;;;;;;;6.60;3.63;;;-3.20;1.00;;;-3.71;68.78;98004.91;5041278;27;120254;-65
2022/04/03 03:42:59;;;;;;;8.35;4.32;;;-3.10;1.00;;;-3.53;68.17;98005.53;5040816;27;129919;-66
2022/04/03 03:45:29;;;;;;;9.63;4.43;;;-3.10;1.00;;;-3.53;68.47;98024.09;5040878;27;129804;-65
2022/04/03 03:47:58;;;;;;;7.97;4.65;;;-3.10;1.00;;;-3.58;68.64;98018.72;5040894;27;119494;-66
2022/04/03 03:50:26;;;;;;;6.57;3.58;;;-3.10;1.00;;;-3.56;68.49;98021.94;5023158;27;119302;-66
2022/04/03 03:52:55;;;;;;;6.72;3.80;;;-3.10;1.00;;;-3.40;68.52;98015.66;5040553;27;129891;-66
2022/04/03 03:55:24;;;;;;;6.95;3.88;;;-3.10;1.00;;;-3.47;67.98;98021.22;5009206;27;129238;-65
2022/04/03 03:57:53;;;;;;;8.50;4.28;;;-3.20;1.00;;;-3.51;68.25;98020.13;5024610;27;122308;-65
2022/04/03 04:00:22;;;;;;;6.88;4.07;;;-3.20;1.00;;;-3.41;68.44;98019.41;5009215;27;121238;-66
2022/04/03 04:02:51;;;;;;;7.93;3.78;;;-3.10;1.00;;;-3.41;68.18;98022.06;5025688;27;129818;-66
2022/04/03 04:05:20;;;;;;;5.65;3.65;;;-3.10;1.00;;;-3.37;68.25;98025.78;5040642;27;130599;-65
2022/04/03 04:07:49;;;;;;;7.90;3.75;;;-3.10;1.00;;;-3.41;67.52;98037.97;5040895;27;119932;-63
2022/04/03 04:10:18;;;;;;;7.25;4.25;;;-3.10;1.00;;;-3.29;67.64;98038.56;5041043;27;119524;-64
2022/04/03 04:12:48;;;;;;;6.40;3.92;;;-3.00;1.00;;;-3.26;67.76;98037.25;5042476;27;129245;-65
2022/04/03 04:15:17;;;;;;;9.93;5.03;;;-3.10;1.00;;;-3.13;67.51;98041.28;5040895;27;130095;-65
2022/04/03 04:17:48;;;;;;;10.95;4.55;;;-3.00;1.00;;;-3.09;67.19;98042.38;5040618;27;119520;-65
2022/04/03 04:20:21;;;;;;;8.60;3.80;;;-3.00;1.00;;;-2.97;67.16;98040.31;5043281;27;120524;-63
2022/04/03 04:22:52;;;;;;;9.50;4.40;;;-3.00;1.00;;;-2.85;66.46;98041.94;5007563;27;128742;-64
2022/04/03 04:25:22;;;;;;;7.88;4.40;;;-3.00;1.00;;;-3.01;66.77;98044.53;5042248;27;129267;-65
2022/04/03 04:27:50;;;;;;;6.88;3.80;;;-2.90;1.00;;;-3.03;67.00;98041.34;5040689;27;120731;-64
2022/04/03 04:30:19;;;;;;;10.00;4.15;;;-2.90;1.00;;;-2.95;66.80;98043.50;5040388;27;119224;-64
2022/04/03 04:32:47;;;;;;;6.40;3.83;;;-2.80;1.00;;;-2.89;66.43;98050.44;5025159;27;129250;-66
2022/04/03 04:35:16;;;;;;;6.45;3.55;;;-2.80;1.00;;;-3.05;67.09;98040.81;5025027;27;129271;-66
2022/04/03 04:37:47;;;;;;;6.72;4.30;;;-2.80;1.00;;;-2.92;66.49;98050.94;5040520;27;120326;-64
2022/04/03 04:40:16;;;;;;;11.23;5.95;;;-2.70;1.00;;;-2.97;67.01;98044.84;5008967;27;118678;-66
2022/04/03 04:42:44;;;;;;;7.70;4.45;;;-2.70;1.00;;;-2.89;66.19;98053.09;5022144;27;129997;-66
2022/04/03 04:45:14;;;;;;;8.52;4.43;;;-2.70;1.00;;;-2.63;66.32;98055.84;5041879;27;129460;-66
2022/04/03 04:47:43;;;;;;;9.65;6.28;;;-2.60;1.00;;;-2.84;66.52;98057.63;5023268;27;122519;-66
2022/04/03 04:50:17;;;;;;;6.95;3.80;;;-2.60;1.00;;;-2.97;67.02;98052.81;5027488;27;121455;-68
2022/04/03 04:52:47;;;;;;;9.02;4.95;;;-2.60;1.00;;;-2.84;67.01;98054.19;5026737;27;128995;-65
2022/04/03 04:55:16;;;;;;;8.07;4.05;;;-2.60;1.00;;;-2.68;66.42;98060.34;5039669;27;129358;-64
2022/04/03 04:57:51;;;;;;;10.48;5.40;;;-2.50;1.00;;;-2.76;66.17;98061.63;5039834;27;119440;-64
2022/04/03 05:00:22;;;;;;;13.52;7.38;;;-2.50;1.00;;;-2.77;66.13;98070.69;5039844;27;119894;-65
2022/04/03 05:02:51;;;;;;;11.20;4.53;;;-2.50;1.00;;;-2.74;66.29;98064.84;5039460;27;129823;-64
2022/04/03 05:05:21;;;;;;;9.95;4.80;;;-2.50;1.00;;;-2.36;65.47;98071.59;5039688;27;129503;-65
2022/04/03 05:07:55;;;;;;;12.52;6.97;;;-2.40;1.00;;;-2.23;64.88;98078.31;5040001;27;119850;-64
2022/04/03 05:10:26;;;;;;;16.48;7.60;;;-2.30;1.00;;;-2.10;64.28;98079.66;5021727;27;119488;-65
2022/04/03 05:12:55;;;;;;;28.02;12.15;;;-2.30;1.00;;;-2.19;64.67;98087.31;5019951;27;130682;-65
2022/04/03 05:15:24;;;;;;;19.23;9.40;;;-2.30;1.00;;;-2.00;64.48;98090.28;5039378;27;130756;-65
2022/04/03 05:17:53;;;;;;;18.52;7.65;;;-2.20;1.00;;;-2.07;64.47;98100.41;5042194;27;119490;-65
2022/04/03 05:20:21;;;;;;;10.27;5.35;;;-2.10;1.00;;;-2.09;63.69;98097.19;5042291;27;119838;-64
2022/04/03 05:22:51;;;;;;;9.70;5.40;;;-2.20;1.00;;;-2.17;64.79;98097.69;5021245;27;129806;-64
2022/04/03 05:25:20;;;;;;;11.05;5.53;;;-2.10;1.00;;;-1.81;63.94;98103.06;5039057;27;129491;-64
2022/04/03 05:27:48;;;;;;;12.80;5.30;;;-2.10;1.00;;;-2.07;64.18;98107.56;5039488;27;119349;-63
2022/04/03 05:30:17;;;;;;;9.85;4.93;;;-2.10;1.00;;;-2.17;65.12;98101.19;5039634;27;120077;-64
2022/04/03 05:32:46;;;;;;;7.80;4.60;;;-2.10;1.00;;;-2.13;64.81;98109.41;5039008;27;129620;-63
2022/04/03 05:35:15;;;;;;;8.90;4.57;;;-2.00;1.00;;;-1.83;64.43;98115.84;5038944;27;130360;-64
2022/04/03 05:37:44;;;;;;;8.55;4.70;;;-1.90;1.00;;;-1.77;63.02;98108.69;5037996;27;122011;-65
2022/04/03 05:40:15;;;;;;;9.98;4.80;;;-1.90;1.00;;;-1.78;63.83;98115.84;5042098;27;123379;-66
2022/04/03 05:42:44;;;;;;;7.00;4.15;;;-1.90;1.00;;;-1.60;62.48;98119.06;5038581;27;131299;-65
2022/04/03 05:45:12;;;;;;;7.90;4.28;;;-1.80;1.00;;;-1.53;63.11;98116.94;5038742;27;129628;-66
2022/04/03 05:47:41;;;;;;;6.93;4.22;;;-1.70;1.00;;;-1.21;62.00;98116.66;5038868;27;120317;-66
2022/04/03 05:50:11;;;;;;;8.75;4.53;;;-1.60;1.00;;;-1.34;61.69;98120.66;5040679;27;118827;-68
2022/04/03 05:52:44;;;;;;;8.30;4.28;;;-1.60;1.00;;;-1.26;61.22;98124.66;5038758;27;129997;-65
2022/04/03 05:55:16;;;;;;;7.28;4.40;;;-1.60;1.00;;;-1.39;62.40;98130.50;5024070;27;129005;-64
2022/04/03 05:57:46;;;;;;;8.68;3.75;;;-1.50;1.00;;;-1.01;61.71;98131.00;5039422;27;119338;-64
2022/04/03 06:00:16;;;;;;;8.32;4.18;;;-1.30;1.00;;;-1.05;60.36;98137.94;5024454;27;119059;-64
2022/04/03 06:02:50;;;;;;;9.73;4.70;;;-1.30;1.00;;;-0.89;60.92;98128.84;5036219;27;129927;-63
2022/04/03 06:05:21;;;;;;;9.68;4.93;;;-1.30;1.00;;;-1.14;60.98;98138.50;5023744;27;128465;-63
2022/04/03 06:07:50;;;;;;;11.88;4.28;;;-1.30;1.00;;;-1.12;61.46;98135.56;5038770;27;119796;-65
2022/04/03 06:10:22;;;;;;;7.32;4.43;;;-1.30;1.00;;;-0.76;60.42;98144.28;5038920;27;119509;-62
2022/04/03 06:13:00;;;;;;;9.60;4.15;;;-1.10;1.00;;;-0.66;60.36;98148.00;5038614;27;130036;-64
2022/04/03 06:15:33;;;;;;;7.15;3.97;;;-1.00;1.00;;;-0.43;59.45;98152.69;5026951;27;130374;-62
2022/04/03 06:18:02;;;;;;;7.40;3.80;;;-1.00;1.00;;;-0.75;59.82;98145.06;5042238;27;119640;-63
2022/04/03 06:20:31;;;;;;;9.27;4.13;;;-1.10;1.00;;;-0.57;59.27;98152.47;5045406;27;119369;-63
2022/04/03 06:23:01;;;;;;;7.50;3.85;;;-1.00;1.00;;;-0.61;60.28;98139.97;5042450;27;130339;-63
2022/04/03 06:25:31;;;;;;;5.85;3.53;;;-1.00;1.00;;;-0.53;58.92;98142.09;5042014;27;128530;-62
2022/04/03 06:28:00;;;;;;;8.38;4.30;;;-1.00;1.00;;;-0.73;58.46;98143.75;5039824;27;122099;-64
2022/04/03 06:30:28;;;;;;;8.40;3.92;;;-1.00;1.00;;;-0.26;58.22;98136.38;5027310;27;121486;-63
2022/04/03 06:32:57;;;;;;;8.85;3.90;;;-0.80;1.00;;;0.15;57.78;98151.38;5041683;27;130676;-65
2022/04/03 06:35:25;;;;;;;8.50;4.13;;;-0.60;1.00;;;-0.20;57.50;98155.81;5027100;27;129513;-62
2022/04/03 06:37:54;;;;;;;8.40;4.30;;;-0.60;1.00;;;0.19;57.04;98155.09;5027598;27;118496;-63
2022/04/03 06:40:24;;;;;;;7.40;4.28;;;-0.40;1.00;;;-0.08;56.74;98153.66;5042098;27;119699;-62
2022/04/03 06:42:54;;;;;;;8.20;4.30;;;-0.50;1.00;;;-0.02;57.49;98146.41;5026815;27;129128;-64
2022/04/03 06:45:24;;;;;;;7.88;4.28;;;-0.50;1.00;;;-0.08;57.55;98155.50;5042239;27;129598;-63
2022/04/03 06:47:52;;;;;;;6.82;4.13;;;-0.40;1.00;;;0.17;57.36;98146.53;5026781;27;119071;-64
2022/04/03 06:50:21;;;;;;;9.30;4.40;;;-0.20;1.00;;;0.67;56.04;98141.94;5040593;27;119388;-62
2022/04/03 06:52:50;;;;;;;6.97;3.83;;;-0.10;1.00;;;0.07;56.27;98159.97;5040321;27;129947;-61
2022/04/03 06:55:20;;;;;;;7.95;3.90;;;-0.30;1.00;;;0.42;55.71;98156.28;5041747;27;129340;-63
2022/04/03 06:57:48;;;;;;;9.52;3.75;;;-0.20;1.00;;;0.49;54.73;98150.63;5041643;27;119742;-63
2022/04/03 07:00:20;;;;;;;7.55;3.88;;;-0.20;1.00;;;0.61;54.62;98153.75;5041947;27;119749;-63
2022/04/03 07:02:49;;;;;;;7.68;3.63;;;-0.10;1.00;;;0.42;55.21;98155.47;5041417;27;130259;-62
2022/04/03 07:05:18;;;;;;;10.10;4.95;;;0.00;1.00;;;0.56;55.01;98164.44;5041314;27;130475;-63
2022/04/03 07:07:46;;;;;;;5.47;3.08;;;0.00;1.00;;;0.47;54.75;98163.47;5037206;27;119814;-64
2022/04/03 07:10:15;;;;;;;8.40;4.47;;;0.00;1.00;;;0.60;53.90;98168.16;5021287;27;120442;-63
2022/04/03 07:12:43;;;;;;;7.00;3.58;;;0.10;1.00;;;0.59;54.93;98169.22;5040412;27;130086;-61
2022/04/03 07:15:13;;;;;;;7.63;3.85;;;0.00;1.00;;;0.92;54.88;98158.84;5040056;27;130515;-62
2022/04/03 07:17:44;;;;;;;6.43;3.78;;;0.30;1.00;;;0.66;53.44;98159.03;5024412;27;121360;-63
2022/04/03 07:20:14;;;;;;;6.18;3.53;;;0.20;1.00;;;0.74;53.21;98156.84;5024777;27;121451;-63
2022/04/03 07:22:43;;;;;;;10.80;4.30;;;0.30;1.00;;;0.54;53.02;98175.41;5040336;27;130671;-64
2022/04/03 07:25:13;;;;;;;6.28;3.60;;;0.20;1.00;;;0.74;54.33;98162.19;5021553;27;129875;-63
2022/04/03 07:27:44;;;;;;;9.25;4.78;;;0.40;1.00;;;1.06;52.69;98166.97;5033829;27;119570;-64
2022/04/03 07:30:13;;;;;;;9.55;5.07;;;0.50;1.00;;;1.22;52.13;98162.31;5040847;27;119620;-63
2022/04/03 07:32:43;;;;;;;6.80;3.67;;;0.60;1.00;;;0.98;51.90;98157.72;5019088;27;129357;-63
2022/04/03 07:35:12;;;;;;;9.77;4.63;;;0.50;1.00;;;0.97;51.46;98158.78;5020071;28;129666;-62
2022/04/03 07:37:41;;;;;;;8.57;4.35;;;0.60;1.00;;;1.00;51.92;98163.56;5020238;27;119613;-63
2022/04/03 07:40:12;;;;;;;7.60;3.83;;;0.60;1.00;;;1.08;51.26;98168.28;5023296;27;119668;-62
2022/04/03 07:42:41;;;;;;;8.10;3.90;;;0.80;1.00;;;1.18;50.81;98167.38;5038667;27;130221;-62
2022/04/03 07:45:12;;;;;;;8.88;4.75;;;0.80;1.00;;;1.50;50.67;98162.56;5040018;27;129817;-62
2022/04/03 07:47:49;;;;;;;5.82;3.47;;;0.80;1.00;;;1.20;51.31;98161.75;5024435;27;119423;-59
2022/04/03 07:50:20;;;;;;;6.78;4.10;;;0.80;1.00;;;1.61;50.37;98167.47;5040481;27;120101;-60
2022/04/03 07:52:49;;;;;;;11.55;5.97;;;1.00;1.00;;;1.66;50.14;98171.19;5040028;27;130336;-61
2022/04/03 07:55:17;;;;;;;7.90;4.10;;;1.10;1.00;;;1.92;50.43;98171.69;5039551;27;129542;-63
2022/04/03 07:57:47;;;;;;;7.53;4.22;;;1.30;1.00;;;2.29;48.60;98165.56;5024432;27;119064;-63
2022/04/03 08:00:16;;;;;;;9.32;4.90;;;1.40;1.00;;;2.01;48.24;98172.66;5041906;27;119238;-63
2022/04/03 08:02:45;;;;;;;7.13;4.40;;;1.30;1.00;;;2.18;49.03;98171.34;5036344;27;130178;-63
2022/04/03 08:05:15;;;;;;;6.38;3.53;;;1.40;1.00;;;1.92;47.27;98169.00;5024875;27;129389;-65
2022/04/03 08:07:46;;;;;;;6.93;4.05;;;1.40;1.00;;;2.16;47.01;98172.41;5039002;27;122533;-61
2022/04/03 08:10:18;;;;;;;5.80;3.15;;;1.40;1.00;;;2.08;47.37;98161.56;5021960;27;122311;-63
2022/04/03 08:12:48;;;;;;;8.57;4.90;;;1.50;1.00;;;2.57;47.28;98168.38;5039840;27;129750;-64
2022/04/03 08:15:19;;;;;;;8.65;4.45;;;1.70;1.00;;;2.48;45.53;98160.22;5025325;27;129829;-62
2022/04/03 08:17:47;;;;;;;5.68;3.53;;;1.90;1.00;;;2.60;43.67;98169.66;5040661;27;120850;-62
2022/04/03 08:20:19;;;;;;;11.27;7.50;;;2.10;1.00;;;3.21;45.96;98168.69;5042824;27;119146;-64
2022/04/03 08:22:49;;;;;;;11.13;4.70;;;2.20;1.00;;;2.54;45.70;98179.69;5039829;27;130311;-64
2022/04/03 08:25:19;;;;;;;8.85;4.53;;;1.90;1.00;;;2.16;45.15;98167.06;5035487;27;129457;-64
2022/04/03 08:27:50;;;;;;;5.38;3.00;;;1.80;1.00;;;2.47;44.48;98174.66;5043983;27;119747;-64
2022/04/03 08:30:22;;;;;;;9.63;5.13;;;1.90;1.00;;;2.56;43.54;98171.34;5045260;27;118781;-64
2022/04/03 08:32:51;;;;;;;5.57;2.78;;;2.10;1.00;;;2.68;39.93;98174.34;5058656;27;130040;-65
2022/04/03 08:35:24;;;;;;;7.03;4.30;;;2.10;1.00;;;2.93;40.20;98157.09;5044200;27;128608;-61
2022/04/03 08:37:53;;;;;;;6.25;2.70;;;2.30;1.00;;;2.36;39.91;98167.09;5044135;27;120792;-63
2022/04/03 08:40:24;;;;;;;12.48;5.85;;;2.10;1.00;;;2.33;40.96;98168.47;5031590;27;119960;-63
2022/04/03 08:42:54;;;;;;;5.20;3.13;;;2.10;1.00;;;2.86;39.12;98170.06;5035071;27;129266;-62
2022/04/03 08:45:24;;;;;;;7.43;3.17;;;2.40;1.00;;;3.17;39.76;98172.25;5039059;27;130002;-64
2022/04/03 08:47:57;;;;;;;8.43;3.17;;;2.50;1.00;;;3.12;37.71;98183.06;5039764;27;120005;-62
2022/04/03 08:50:29;;;;;;;6.10;3.35;;;2.50;1.00;;;3.02;37.66;98171.41;5008835;27;118449;-62
2022/04/03 08:53:02;;;;;;;6.57;3.22;;;2.40;1.00;;;2.83;36.91;98171.44;5024368;27;129079;-67
2022/04/03 08:55:31;;;;;;;6.72;3.13;;;2.40;1.00;;;2.70;37.69;98166.84;5039621;27;131326;-62
2022/04/03 08:58:02;;;;;;;7.88;3.70;;;2.30;1.00;;;2.79;37.25;98170.47;5038436;27;122513;-63
2022/04/03 09:00:32;;;;;;;6.85;4.22;;;2.30;1.00;;;3.16;37.99;98168.75;5039246;27;121776;-63
2022/04/03 09:03:01;;;;;;;5.07;2.80;;;2.60;1.00;;;3.14;37.21;98165.56;5039300;27;130722;-63
2022/04/03 09:05:42;;;;;;;6.30;3.88;;;2.60;1.00;;;3.48;37.63;98174.38;5039417;27;129513;-63
2022/04/03 09:08:13;;;;;;;5.72;3.00;;;2.70;1.00;;;3.22;37.36;98172.16;5024822;27;118815;-66
2022/04/03 09:10:42;;;;;;;4.68;2.78;;;2.50;1.00;;;2.78;37.91;98184.94;5024343;27;118289;-63
2022/04/03 09:13:11;;;;;;;6.35;3.22;;;2.40;1.00;;;2.99;36.84;98192.63;5039072;27;130856;-64
2022/04/03 09:15:46;;;;;;;5.05;2.60;;;2.50;1.00;;;3.09;38.69;98183.66;5024589;27;129023;-65
2022/04/03 09:18:15;;;;;;;5.38;3.08;;;2.70;1.00;;;3.23;36.65;98184.47;5039507;27;120500;-63
2022/04/03 09:20:45;;;;;;;6.30;3.03;;;2.60;1.00;;;3.17;38.78;98175.72;5031230;27;119894;-65
2022/04/03 09:23:20;;;;;;;4.72;2.15;;;2.70;1.00;;;2.74;36.77;98189.25;5040378;27;104927;-61
2022/04/03 09:25:49;;;;;;;4.63;2.20;;;2.50;1.00;;;3.20;35.71;98169.75;5034199;27;129404;-63
2022/04/03 09:28:18;;;;;;;6.15;2.92;;;2.60;1.00;;;3.34;35.80;98174.34;5021466;27;118446;-64
2022/04/03 09:30:49;;;;;;;4.35;2.60;;;2.90;1.00;;;3.09;35.80;98171.03;5020061;27;118409;-64
2022/04/03 09:33:20;;;;;;;4.93;2.80;;;2.70;1.00;;;3.37;37.28;98174.56;5023435;27;129139;-63
2022/04/03 09:35:59;;;;;;;4.78;2.90;;;2.90;1.00;;;3.47;35.90;98173.56;5022549;27;128641;-63
2022/04/03 09:38:29;;;;;;;5.70;3.10;;;3.00;1.00;;;3.42;36.31;98177.13;5043739;27;118627;-64
2022/04/03 09:41:00;;;;;;;7.25;3.40;;;2.90;1.00;;;3.46;37.25;98166.63;5058793;27;119939;-63
2022/04/03 09:43:34;;;;;;;6.65;3.80;;;2.90;1.00;;;3.89;37.94;98174.34;5043440;27;129236;-64
2022/04/03 09:46:05;;;;;;;5.50;3.17;;;3.10;1.00;;;3.64;36.79;98169.50;5042915;27;129195;-64
2022/04/03 09:48:36;;;;;;;6.15;3.10;;;3.10;1.00;;;3.48;37.29;98177.84;5018108;27;120840;-63
2022/04/03 09:51:09;;;;;;;4.88;2.88;;;3.10;1.00;;;3.68;35.85;98167.84;5033980;27;121914;-62
2022/04/03 09:53:47;;;;;;;8.40;4.30;;;3.10;1.00;;;3.62;37.67;98179.75;5017292;27;129397;-65
2022/04/03 09:56:28;;;;;;;8.18;4.18;;;3.10;1.00;;;3.95;37.38;98175.84;5020696;27;129156;-66
2022/04/03 09:59:03;;;;;;;8.95;5.07;;;3.30;1.00;;;4.14;36.46;98169.56;5036647;27;120164;-62
2022/04/03 10:01:34;;;;;;;5.10;3.15;;;3.40;1.00;;;4.15;36.46;98176.53;5037582;27;119324;-63
2022/04/03 10:04:05;;;;;;;5.10;2.70;;;3.40;1.00;;;3.85;36.09;98168.00;5037868;27;130730;-62
2022/04/03 10:06:38;;;;;;;6.38;3.17;;;3.30;1.00;;;4.41;36.13;98167.91;5037548;27;129810;-63
2022/04/03 10:09:11;;;;;;;6.10;3.47;;;3.60;1.00;;;4.86;36.65;98167.91;5045074;27;119866;-64
2022/04/03 10:11:40;;;;;;;6.03;3.28;;;3.80;1.00;;;4.20;36.59;98162.97;5057723;27;119486;-63
2022/04/03 10:14:09;;;;;;;5.47;3.38;;;3.60;1.00;;;4.22;40.07;98160.00;5041626;27;129425;-62
2022/04/03 10:16:38;;;;;;;5.90;3.03;;;3.70;1.00;;;3.87;37.07;98165.03;5056182;27;129712;-62
2022/04/03 10:19:07;;;;;;;6.00;3.38;;;3.50;1.00;;;4.30;38.66;98162.78;5059013;27;120040;-63
2022/04/03 10:21:44;;;;;;;5.13;3.00;;;3.70;1.00;;;4.48;36.40;98170.97;5043704;27;118773;-68
2022/04/03 10:24:17;;;;;;;5.90;3.40;;;3.50;1.00;;;4.08;35.88;98160.03;5057243;27;130303;-63
2022/04/03 10:26:53;;;;;;;5.82;3.22;;;3.30;1.00;;;3.78;37.83;98167.63;5057319;27;129765;-67
2022/04/03 10:29:22;;;;;;;5.63;3.53;;;3.40;1.00;;;4.14;37.17;98164.19;5058237;27;119600;-63
2022/04/03 10:31:59;;;;;;;8.13;3.90;;;3.50;1.00;;;3.70;36.89;98166.41;5040042;27;119528;-64
2022/04/03 10:34:29;;;;;;;6.90;3.42;;;3.40;1.00;;;3.88;36.99;98156.69;5056767;27;130052;-62